Time;durP1;ratioP1;P1;durP2;ratioP2;P2;SDS_P1;SDS_P2;PMS_P1;PMS_P2;Temp;Humidity;BMP_temperature;BMP_pressure;BME280_temperature;BME280_humidity;BME280_pressure;Samples;Min_cycle;Max_cycle;Signal;HPM_P1;HPM_P2
2022/08/04 00:02:00;;;;;;;;;41.20;35.00;;;;;26.57;50.08;98976.16;6263861;27;96532;-59
2022/08/04 00:05:05;;;;;;;;;42.00;36.00;;;;;26.57;50.39;98979.72;6276160;27;98433;-58
2022/08/04 00:08:22;;;;;;;;;39.75;34.00;;;;;26.53;50.33;98978.75;6266662;27;97527;-59
2022/08/04 00:11:29;;;;;;;;;34.40;31.40;;;;;26.50;50.31;98971.09;6262805;27;97505;-59
2022/08/04 00:14:35;;;;;;;;;43.50;35.50;;;;;26.48;50.32;98965.09;6270236;27;97471;-59
2022/08/04 00:17:43;;;;;;;;;37.60;33.00;;;;;26.45;50.34;98967.66;6261142;27;97599;-60
2022/08/04 00:20:47;;;;;;;;;40.60;35.40;;;;;26.43;50.07;98969.97;6270609;27;98263;-61
2022/08/04 00:23:55;;;;;;;;;39.00;33.00;;;;;26.40;50.17;98976.13;6277820;27;97345;-59
2022/08/04 00:27:16;;;;;;;;;40.50;35.00;;;;;26.38;50.32;98975.66;6270073;27;97796;-59
2022/08/04 00:30:19;;;;;;;;;40.33;35.00;;;;;26.34;50.40;98972.69;6270676;27;98525;-60
2022/08/04 00:33:23;;;;;;;;;42.25;34.75;;;;;26.32;50.18;98977.75;6264957;27;97262;-59
2022/08/04 00:36:28;;;;;;;;;41.60;35.00;;;;;26.30;50.38;98978.06;6289267;27;97100;-59
2022/08/04 00:39:34;;;;;;;;;38.00;34.00;;;;;26.22;50.50;98967.00;6281098;27;97414;-60
2022/08/04 00:42:46;;;;;;;;;46.00;38.00;;;;;26.30;50.70;98971.72;6287164;27;97555;-61
2022/08/04 00:46:27;;;;;;;;;44.75;37.25;;;;;26.33;51.15;98984.09;6263963;27;96810;-59
2022/08/04 00:49:52;;;;;;;;;37.20;33.00;;;;;26.32;50.76;98976.94;6255635;27;97040;-59
2022/08/04 00:53:06;;;;;;;;;38.40;34.40;;;;;26.31;50.94;98981.66;6290239;27;96687;-60
2022/08/04 00:56:31;;;;;;;;;38.40;33.40;;;;;26.30;51.29;98980.00;6265725;27;97555;-61
2022/08/04 00:59:51;;;;;;;;;36.00;33.00;;;;;26.28;51.43;98982.31;6269432;27;96728;-58
2022/08/04 01:03:10;;;;;;;;;44.40;38.00;;;;;26.25;51.29;98989.28;6271664;27;96959;-58
2022/08/04 01:06:28;;;;;;;;;41.25;36.00;;;;;26.22;51.31;98981.63;6264513;27;96837;-58
2022/08/04 01:09:52;;;;;;;;;49.00;39.00;;;;;25.98;51.25;98953.59;6275900;27;98244;-59
2022/08/04 01:13:20;;;;;;;;;44.00;36.00;;;;;26.20;51.30;98980.28;6274941;27;97417;-59
2022/08/04 01:16:26;;;;;;;;;46.60;38.00;;;;;26.16;51.40;98974.59;6289603;27;97422;-60
2022/08/04 01:19:53;;;;;;;;;41.00;35.50;;;;;26.13;51.55;98982.72;6286413;27;98621;-60
2022/08/04 01:23:33;;;;;;;;;42.40;36.00;;;;;26.09;51.42;98981.75;6287916;27;96983;-60
2022/08/04 01:26:50;;;;;;;;;39.00;33.40;;;;;26.08;51.47;98982.88;6290058;27;97024;-59
2022/08/04 01:30:02;;;;;;;;;36.25;32.25;;;;;26.05;51.65;98981.53;6270983;27;97406;-59
2022/08/04 01:33:12;;;;;;;;;39.00;35.00;;;;;26.04;51.66;98979.13;6268528;27;97199;-58
2022/08/04 01:36:16;;;;;;;;;38.00;33.60;;;;;26.03;51.65;98971.97;6268154;27;98330;-60
2022/08/04 01:42:44;;;;;;;;;40.25;35.00;;;;;26.02;51.23;98973.09;6269996;27;96962;-60
2022/08/04 01:45:56;;;;;;;;;38.40;34.00;;;;;26.00;51.41;98976.16;6266065;27;97191;-59
2022/08/04 01:49:02;;;;;;;;;36.60;33.00;;;;;25.99;51.24;98974.56;6268098;27;98367;-59
2022/08/04 01:52:09;;;;;;;;;42.40;35.00;;;;;25.96;51.22;98979.91;6265107;27;98539;-59
2022/08/04 01:55:14;;;;;;;;;41.80;35.80;;;;;25.92;51.52;98988.00;6263869;27;97464;-59
2022/08/04 01:58:19;;;;;;;;;41.80;34.80;;;;;25.88;51.56;98982.31;6280155;27;96439;-59
2022/08/04 02:01:24;;;;;;;;;43.60;36.00;;;;;25.86;51.47;98976.28;6287949;27;96433;-59
2022/08/04 02:04:27;;;;;;;;;41.20;35.00;;;;;25.81;51.34;98975.63;6265116;27;97956;-59
2022/08/04 02:07:50;;;;;;;;;37.60;33.60;;;;;25.80;51.48;98974.81;6263362;27;96368;-59
2022/08/04 02:11:03;;;;;;;;;41.40;35.60;;;;;25.78;51.34;98971.56;6286097;27;96598;-59
2022/08/04 02:17:49;;;;;;;;;40.00;34.00;;;;;25.72;51.32;98974.78;6274792;27;96611;-60
2022/08/04 02:20:58;;;;;;;;;42.00;36.00;;;;;25.67;51.11;98964.69;6262404;27;97547;-60
2022/08/04 02:24:06;;;;;;;;;38.00;33.00;;;;;25.70;51.16;98968.78;6269045;27;97257;-60
2022/08/04 02:27:13;;;;;;;;;45.00;36.00;;;;;25.68;50.88;98962.75;6261810;27;97117;-60
2022/08/04 02:30:18;;;;;;;;;40.00;33.75;;;;;25.65;50.67;98955.94;6265318;27;96867;-60
2022/08/04 02:33:34;;;;;;;;;38.00;34.00;;;;;25.62;50.72;98959.31;6272197;27;96995;-59
2022/08/04 02:36:40;;;;;;;;;40.00;34.20;;;;;25.42;50.84;98930.28;6262953;27;97252;-58
2022/08/04 02:39:45;;;;;;;;;36.20;32.20;;;;;25.56;51.02;98959.78;6272074;27;97520;-58
2022/08/04 02:42:57;;;;;;;;;37.50;33.00;;;;;25.54;51.17;98953.72;6286352;27;98049;-59
2022/08/04 02:46:03;;;;;;;;;38.40;33.60;;;;;25.49;51.02;98962.97;6265195;27;97064;-60
2022/08/04 02:49:22;;;;;;;;;38.00;33.00;;;;;25.49;50.89;98953.88;6277892;27;98457;-60
2022/08/04 02:52:26;;;;;;;;;38.40;33.00;;;;;25.46;50.96;98958.88;6262485;27;96779;-59
2022/08/04 02:55:30;;;;;;;;;35.60;32.00;;;;;25.43;51.26;98966.97;6279421;27;97507;-60
2022/08/04 02:58:37;;;;;;;;;33.75;31.75;;;;;25.42;51.07;98959.81;6286955;27;96396;-59
2022/08/04 03:01:41;;;;;;;;;33.60;32.00;;;;;25.39;51.18;98955.78;6272359;27;98522;-61
2022/08/04 03:05:13;;;;;;;;;39.25;35.00;;;;;25.37;51.21;98958.03;6258601;27;98235;-59
2022/08/04 03:08:38;;;;;;;;;38.50;33.50;;;;;25.33;51.55;98954.28;6278633;27;96918;-60
2022/08/04 03:12:11;;;;;;;;;41.60;36.00;;;;;25.35;51.54;98970.53;6268241;27;97373;-60
2022/08/04 03:15:44;;;;;;;;;42.75;35.75;;;;;25.35;51.96;98954.78;6286801;27;96764;-59
2022/08/04 03:19:39;;;;;;;;;37.60;33.00;;;;;25.32;51.58;98960.91;6267716;27;97315;-60
2022/08/04 03:23:07;;;;;;;;;41.40;35.00;;;;;25.31;51.43;98964.84;6211827;28;96766;-59
2022/08/04 03:26:45;;;;;;;;;37.75;33.00;;;;;25.30;51.36;98965.13;6199573;27;96630;-59
2022/08/04 03:30:08;;;;;;;;;35.40;31.40;;;;;25.29;51.36;98966.25;6245767;27;97695;-59
2022/08/04 03:33:43;;;;;;;;;38.00;33.00;;;;;25.29;51.04;98967.09;6269183;27;98750;-60
2022/08/04 03:37:08;;;;;;;;;39.00;35.00;;;;;25.31;51.54;98964.84;6281707;27;98766;-60
2022/08/04 03:40:47;;;;;;;;;26.25;25.00;;;;;25.33;51.29;98950.69;6261963;27;97147;-61
2022/08/04 03:44:35;;;;;;;;;40.40;35.00;;;;;25.34;51.64;98952.34;6276793;27;96588;-59
2022/08/04 03:48:09;;;;;;;;;38.00;33.00;;;;;25.38;51.30;98958.84;6268014;27;98156;-60
2022/08/04 03:55:21;;;;;;;;;35.00;32.00;;;;;25.41;51.08;98964.53;6285187;27;97212;-60
2022/08/04 03:59:15;;;;;;;;;37.60;33.00;;;;;25.49;51.32;98973.19;6283417;27;97947;-61
2022/08/04 04:02:46;;;;;;;;;40.00;35.00;;;;;25.54;51.54;98973.88;6203620;27;97469;-58
2022/08/04 04:06:14;;;;;;;;;36.20;32.40;;;;;25.60;51.63;98971.81;6291378;27;97540;-60
2022/08/04 04:09:54;;;;;;;;;38.40;34.40;;;;;25.67;52.10;98974.91;6267002;27;96766;-61
2022/08/04 04:13:46;;;;;;;;;37.33;33.33;;;;;25.72;51.76;98978.34;6280604;27;97122;-58
2022/08/04 04:17:09;;;;;;;;;43.00;35.00;;;;;25.77;51.60;98980.16;6250696;27;97291;-59
2022/08/04 04:20:46;;;;;;;;;36.60;33.00;;;;;25.82;51.59;98975.31;6275472;27;98476;-59
2022/08/04 04:24:21;;;;;;;;;40.40;35.00;;;;;25.90;51.70;98975.66;6250595;27;98585;-59
2022/08/04 04:27:40;;;;;;;;;37.60;34.00;;;;;25.99;51.52;98982.03;6275563;27;96717;-58
2022/08/04 04:30:55;;;;;;;;;40.20;34.20;;;;;26.09;51.36;98979.78;6266289;27;96725;-60
2022/08/04 04:34:09;;;;;;;;;38.00;33.00;;;;;26.18;50.90;98988.91;6269109;27;96903;-60
2022/08/04 04:37:26;;;;;;;;;43.75;36.75;;;;;26.27;50.88;98987.00;6266984;27;96861;-61
2022/08/04 04:40:43;;;;;;;;;37.00;33.00;;;;;26.29;50.81;98993.00;6265589;27;96519;-58
2022/08/04 04:44:41;;;;;;;;;48.20;40.20;;;;;26.38;50.18;98987.53;6269625;27;96939;-61
2022/08/04 04:47:55;;;;;;;;;50.00;41.40;;;;;26.41;50.09;98997.09;6194575;28;96897;-59
2022/08/04 04:51:19;;;;;;;;;49.25;41.75;;;;;26.47;50.20;99004.13;6198638;28;97840;-61
2022/08/04 04:54:32;;;;;;;;;50.00;39.80;;;;;26.51;50.17;99003.16;6196281;28;98259;-60
2022/08/04 04:57:39;;;;;;;;;52.00;40.00;;;;;26.58;50.05;99009.03;6202578;28;97417;-59
2022/08/04 05:01:16;;;;;;;;;41.00;34.75;;;;;26.60;49.62;99008.69;6193069;28;97477;-62
2022/08/04 05:05:00;;;;;;;;;38.40;32.80;;;;;26.62;49.75;99009.19;6187501;28;97967;-58
2022/08/04 05:08:26;;;;;;;;;36.80;32.00;;;;;26.68;49.47;99010.66;6187938;28;97886;-61
2022/08/04 05:12:16;;;;;;;;;33.50;32.00;;;;;26.77;49.10;99010.66;6189437;28;98089;-62
2022/08/04 05:15:45;;;;;;;;;34.60;32.00;;;;;26.82;49.13;99004.97;6196016;28;97342;-61
2022/08/04 05:19:03;;;;;;;;;35.50;32.75;;;;;26.93;49.30;99009.03;6251868;27;97320;-61
2022/08/04 05:22:10;;;;;;;;;36.00;31.00;;;;;27.02;48.93;99007.09;6276002;27;97202;-57
2022/08/04 05:25:22;;;;;;;;;38.00;31.40;;;;;27.10;48.64;99009.84;6272290;27;96706;-59
2022/08/04 05:28:31;;;;;;;;;34.40;32.00;;;;;27.23;48.51;99009.97;6271752;27;97009;-58
2022/08/04 05:31:41;;;;;;;;;35.60;30.60;;;;;27.31;48.29;99010.00;6282795;27;96246;-59
2022/08/04 05:34:52;;;;;;;;;28.00;27.75;;;;;27.40;48.39;99013.56;6273212;27;97785;-58
2022/08/04 05:37:58;;;;;;;;;34.40;31.00;;;;;27.53;48.08;99018.09;6282653;27;97179;-61
2022/08/04 05:41:05;;;;;;;;;33.40;30.40;;;;;27.63;47.87;99013.34;6296584;27;97467;-59
2022/08/04 05:44:10;;;;;;;;;27.00;26.40;;;;;27.72;47.38;99014.94;6272810;27;97425;-60
2022/08/04 05:47:17;;;;;;;;;30.50;28.50;;;;;27.83;47.33;99013.44;6263667;27;97447;-58
2022/08/04 05:50:21;;;;;;;;;27.75;27.00;;;;;27.70;46.79;98985.97;6262558;27;97451;-59
2022/08/04 05:53:27;;;;;;;;;29.60;27.60;;;;;28.07;46.18;99020.34;6275832;27;96887;-59
2022/08/04 05:56:32;;;;;;;;;31.00;26.60;;;;;28.02;45.63;98999.16;6267851;27;97615;-59
2022/08/04 05:59:39;;;;;;;;;28.60;25.80;;;;;28.29;45.31;99020.91;6278242;27;97623;-58
2022/08/04 06:02:47;;;;;;;;;28.00;26.00;;;;;28.40;45.65;99019.34;6268521;27;97414;-58
2022/08/04 06:05:51;;;;;;;;;27.00;27.00;;;;;28.51;44.73;99019.78;6272588;27;96954;-63
2022/08/04 06:08:56;;;;;;;;;25.40;24.40;;;;;28.61;45.02;99022.16;6281684;27;97506;-60
2022/08/04 06:12:02;;;;;;;;;26.40;23.40;;;;;28.69;45.00;99017.69;6272988;27;97444;-63
2022/08/04 06:15:09;;;;;;;;;24.40;24.00;;;;;28.78;44.82;99024.81;6269519;27;97844;-59
2022/08/04 06:18:15;;;;;;;;;29.00;28.00;;;;;28.90;44.54;99034.38;6264889;27;96763;-55
2022/08/04 06:21:41;;;;;;;;;24.00;23.00;;;;;29.04;44.78;99034.91;6263094;27;96873;-62
2022/08/04 06:24:47;;;;;;;;;29.00;27.60;;;;;29.13;44.00;99038.41;6268908;27;96620;-59
2022/08/04 06:27:51;;;;;;;;;26.80;24.80;;;;;29.17;43.91;99047.72;6278540;27;96508;-59
2022/08/04 06:31:01;;;;;;;;;26.00;25.75;;;;;29.24;44.38;99045.19;6273840;27;97153;-64
2022/08/04 06:34:28;;;;;;;;;26.00;23.60;;;;;29.37;43.81;99049.66;6263803;27;97091;-60
2022/08/04 06:37:32;;;;;;;;;24.80;22.80;;;;;29.51;43.21;99054.94;6269272;27;97456;-60
2022/08/04 06:40:46;;;;;;;;;24.00;24.00;;;;;29.60;42.25;99038.97;6266466;27;97490;-59
2022/08/04 06:43:52;;;;;;;;;24.00;22.00;;;;;29.71;43.43;99035.41;6279247;27;97080;-58
2022/08/04 06:46:56;;;;;;;;;24.60;23.40;;;;;29.80;42.46;99026.97;6276104;27;97464;-56
2022/08/04 06:50:02;;;;;;;;;25.00;25.00;;;;;29.91;42.94;99042.06;6280039;27;97578;-58
2022/08/04 06:53:26;;;;;;;;;22.80;20.40;;;;;30.05;42.27;99036.19;6274479;27;96809;-58
2022/08/04 06:56:33;;;;;;;;;23.00;22.00;;;;;30.16;42.52;99036.50;6266271;27;96864;-60
2022/08/04 06:59:37;;;;;;;;;21.80;21.00;;;;;30.30;42.76;99034.22;6280848;27;97137;-61
2022/08/04 07:02:44;;;;;;;;;20.00;20.00;;;;;30.45;42.65;99027.94;6281181;27;97506;-59
2022/08/04 07:05:51;;;;;;;;;20.60;20.40;;;;;30.62;42.86;99030.50;6275825;27;96706;-59
2022/08/04 07:08:59;;;;;;;;;20.00;20.00;;;;;30.83;41.79;99036.72;6262188;27;96882;-59
2022/08/04 07:12:03;;;;;;;;;21.75;19.75;;;;;30.97;41.04;99028.78;6260805;27;97042;-56
2022/08/04 07:15:09;;;;;;;;;20.00;20.00;;;;;31.14;41.53;99036.06;6267398;27;96624;-63
2022/08/04 07:18:17;;;;;;;;;19.00;18.00;;;;;31.31;41.49;99029.38;6262502;27;96907;-59
2022/08/04 07:21:23;;;;;;;;;20.00;20.00;;;;;31.48;40.95;99031.03;6261221;27;97123;-57
2022/08/04 07:24:33;;;;;;;;;19.00;19.00;;;;;31.60;40.13;99029.03;6283739;27;97427;-60
2022/08/04 07:27:37;;;;;;;;;21.60;21.00;;;;;31.77;39.51;99031.47;6284944;27;97087;-58
2022/08/04 07:30:53;;;;;;;;;19.00;18.80;;;;;31.94;39.21;99032.28;6285440;27;97443;-62
2022/08/04 07:33:57;;;;;;;;;19.00;17.60;;;;;32.16;39.00;99034.44;6267526;27;97544;-60
2022/08/04 07:37:22;;;;;;;;;15.00;15.00;;;;;32.35;37.92;99031.75;6263696;27;97144;-59
2022/08/04 07:40:41;;;;;;;;;16.00;16.00;;;;;32.56;38.40;99028.63;6266646;27;97476;-59
2022/08/04 07:43:46;;;;;;;;;16.00;16.00;;;;;32.67;35.80;99029.72;6281738;27;96810;-65
2022/08/04 07:46:50;;;;;;;;;19.40;19.00;;;;;32.78;35.87;99018.78;6291879;27;96888;-60
2022/08/04 07:49:53;;;;;;;;;17.00;16.00;;;;;32.96;36.76;99022.78;6291965;27;97296;-61
2022/08/04 07:53:02;;;;;;;;;18.40;16.40;;;;;33.17;35.97;99022.44;6282665;27;97103;-58
2022/08/04 07:56:26;;;;;;;;;13.60;13.60;;;;;33.32;34.31;99025.16;6266971;27;96837;-58
2022/08/04 07:59:30;;;;;;;;;15.60;15.00;;;;;33.39;34.14;99021.69;6282352;27;97091;-60
2022/08/04 08:02:34;;;;;;;;;14.25;12.50;;;;;33.49;33.32;99033.06;6290211;27;96959;-58
2022/08/04 08:05:39;;;;;;;;;13.60;13.00;;;;;33.51;33.04;99038.28;6267042;27;97437;-61
2022/08/04 08:09:08;;;;;;;;;14.40;14.20;;;;;33.55;32.07;99027.16;6266229;27;96613;-61
2022/08/04 08:12:16;;;;;;;;;11.60;10.60;;;;;33.53;30.39;99033.13;6266625;27;96717;-59
2022/08/04 08:15:41;;;;;;;;;8.40;8.00;;;;;33.59;29.55;99031.66;6265206;27;96542;-60
2022/08/04 08:18:45;;;;;;;;;10.25;10.00;;;;;33.50;28.29;99026.31;6265995;27;96673;-60
2022/08/04 08:21:52;;;;;;;;;14.00;14.00;;;;;33.48;28.33;99034.25;6265981;27;96999;-57
2022/08/04 08:25:05;;;;;;;;;8.60;8.60;;;;;33.22;28.42;98994.22;6266209;27;97178;-65
2022/08/04 08:28:09;;;;;;;;;10.40;10.40;;;;;33.41;28.31;99019.34;6283399;27;97558;-64
2022/08/04 08:31:13;;;;;;;;;10.00;10.00;;;;;33.33;29.08;99020.38;6289215;27;97667;-61
2022/08/04 08:34:16;;;;;;;;;14.75;14.75;;;;;33.42;30.10;99021.75;6265153;27;96355;-60
2022/08/04 08:37:34;;;;;;;;;8.80;8.80;;;;;33.43;29.10;99028.94;6265756;27;97478;-60
2022/08/04 08:40:51;;;;;;;;;14.40;14.40;;;;;33.42;28.07;99027.34;6265593;27;97473;-59
2022/08/04 08:44:11;;;;;;;;;10.00;10.00;;;;;33.57;27.54;99034.03;6289822;27;96897;-58
2022/08/04 08:47:54;;;;;;;;;6.60;6.60;;;;;33.43;24.28;99030.94;6291040;27;97949;-59
2022/08/04 08:51:31;;;;;;;;;8.40;8.40;;;;;33.55;25.76;99043.94;6276365;27;96829;-58
2022/08/04 08:54:51;;;;;;;;;5.60;5.60;;;;;33.54;25.48;99031.94;6265851;27;97086;-55
2022/08/04 08:58:10;;;;;;;;;8.00;7.80;;;;;33.58;26.22;99030.03;6269360;27;97454;-55
2022/08/04 09:01:34;;;;;;;;;10.00;9.00;;;;;33.59;25.38;99037.25;6288529;27;97568;-59
2022/08/04 09:04:56;;;;;;;;;9.20;8.80;;;;;33.65;26.35;99029.34;6266395;27;97022;-58
2022/08/04 09:08:18;;;;;;;;;9.50;9.50;;;;;33.69;26.11;99036.66;6264990;27;98152;-58
2022/08/04 09:11:25;;;;;;;;;7.40;7.00;;;;;33.68;25.78;99025.84;6265573;27;96850;-60
2022/08/04 09:14:39;;;;;;;;;7.00;7.00;;;;;33.83;25.70;99036.09;6266230;27;97433;-59
2022/08/04 09:17:49;;;;;;;;;7.40;7.40;;;;;33.91;25.78;99032.28;6265630;27;97094;-61
2022/08/04 09:21:00;;;;;;;;;9.33;9.33;;;;;33.94;25.66;99034.31;6265114;27;97092;-62
2022/08/04 09:24:11;;;;;;;;;9.00;8.00;;;;;34.03;25.15;99032.06;6274315;27;97556;-58
2022/08/04 09:27:46;;;;;;;;;8.60;8.60;;;;;34.06;24.95;99030.53;6285431;27;97343;-61
2022/08/04 09:30:58;;;;;;;;;9.00;9.00;;;;;34.03;25.33;99032.06;6290109;27;96863;-57
2022/08/04 09:34:11;;;;;;;;;8.00;8.00;;;;;34.11;26.59;99030.22;6281529;27;97533;-58
2022/08/04 09:37:23;;;;;;;;;8.20;6.60;;;;;34.11;25.31;99028.19;6264687;27;97466;-60
2022/08/04 09:40:29;;;;;;;;;9.00;9.00;;;;;34.20;25.28;99041.97;6264794;27;96983;-62
2022/08/04 09:44:07;;;;;;;;;9.00;9.00;;;;;34.30;25.50;99024.56;6263911;27;97161;-62
2022/08/04 09:47:39;;;;;;;;;9.40;9.40;;;;;34.41;25.36;99028.31;6265922;27;97461;-58
2022/08/04 09:50:44;;;;;;;;;14.00;13.00;;;;;34.59;25.43;99028.59;6268658;27;97195;-63
2022/08/04 09:54:03;;;;;;;;;10.75;10.75;;;;;34.72;24.87;99019.59;6287365;27;97513;-62
2022/08/04 09:57:14;;;;;;;;;10.00;10.00;;;;;34.87;24.36;99020.59;6287407;27;97419;-60
2022/08/04 10:00:20;;;;;;;;;10.40;10.40;;;;;34.98;24.38;99015.97;6261353;27;96822;-61
2022/08/04 10:03:49;;;;;;;;;10.00;9.00;;;;;35.07;24.45;99013.66;6263207;27;96903;-56
2022/08/04 10:07:04;;;;;;;;;17.60;17.00;;;;;35.09;24.61;99018.91;6275169;27;97379;-57
2022/08/04 10:10:19;;;;;;;;;12.00;11.60;;;;;35.14;24.79;99022.16;6278934;27;96830;-61
2022/08/04 10:13:35;;;;;;;;;8.20;8.00;;;;;35.17;24.34;99015.81;6288035;27;96780;-59
2022/08/04 10:16:47;;;;;;;;;14.50;13.50;;;;;35.07;23.93;99005.25;6287739;27;97247;-60
2022/08/04 10:20:03;;;;;;;;;10.60;10.00;;;;;35.06;24.49;99014.03;6287526;27;96994;-58
2022/08/04 10:23:15;;;;;;;;;12.00;11.00;;;;;35.17;24.75;99010.22;6282446;27;96626;-59
2022/08/04 10:26:28;;;;;;;;;12.80;12.80;;;;;35.17;23.86;99010.22;6287138;27;96856;-59
2022/08/04 10:29:41;;;;;;;;;11.60;10.60;;;;;35.20;24.43;98997.41;6285064;27;96975;-62
2022/08/04 10:32:50;;;;;;;;;9.60;9.60;;;;;35.15;23.97;99009.75;6284324;27;97099;-61
2022/08/04 10:36:02;;;;;;;;;8.60;8.60;;;;;35.29;24.70;98995.13;6288224;27;96500;-58
2022/08/04 10:39:12;;;;;;;;;11.00;10.40;;;;;35.39;24.14;98999.22;6288528;27;97462;-61
2022/08/04 10:42:41;;;;;;;;;9.00;9.00;;;;;35.38;23.86;98994.84;6287271;27;96617;-61
2022/08/04 10:45:49;;;;;;;;;11.40;11.00;;;;;35.46;25.06;98994.53;6288626;27;96530;-60
2022/08/04 10:49:04;;;;;;;;;12.00;11.00;;;;;35.51;24.62;98996.97;6287542;27;97337;-60
2022/08/04 10:52:17;;;;;;;;;10.60;10.00;;;;;35.45;24.69;98997.69;6288140;27;96768;-59
2022/08/04 10:55:30;;;;;;;;;12.00;12.00;;;;;35.50;25.28;98995.34;6287788;27;97028;-59
2022/08/04 10:59:00;;;;;;;;;10.75;10.50;;;;;35.63;24.65;98998.69;6270110;27;97518;-59
2022/08/04 11:02:20;;;;;;;;;11.50;11.50;;;;;35.65;24.30;98999.13;6262802;27;97253;-59
2022/08/04 11:05:30;;;;;;;;;9.60;9.00;;;;;35.75;25.00;98992.03;6265268;27;96622;-58
2022/08/04 11:08:37;;;;;;;;;13.00;12.50;;;;;35.79;23.71;98999.28;6262890;27;96561;-61
2022/08/04 11:11:46;;;;;;;;;9.00;8.80;;;;;35.84;24.16;98987.69;6261982;27;96981;-59
2022/08/04 11:15:09;;;;;;;;;17.00;16.00;;;;;35.91;24.80;98989.75;6263482;27;96606;-59
2022/08/04 11:18:19;;;;;;;;;8.80;8.80;;;;;35.94;24.49;98997.41;6282124;27;97060;-62
2022/08/04 11:21:28;;;;;;;;;10.25;10.00;;;;;35.91;24.88;98992.56;6265274;27;96721;-62
2022/08/04 11:24:40;;;;;;;;;11.00;11.00;;;;;35.79;24.74;98990.84;6265495;27;96728;-59
2022/08/04 11:27:54;;;;;;;;;8.80;8.80;;;;;35.73;24.72;98998.00;6281524;27;97989;-57
2022/08/04 11:31:02;;;;;;;;;12.50;12.50;;;;;35.70;24.78;98997.97;6288116;27;96990;-62
2022/08/04 11:34:17;;;;;;;;;12.80;12.80;;;;;35.67;24.82;98981.94;6287771;27;97503;-61
2022/08/04 11:37:27;;;;;;;;;9.50;9.50;;;;;35.70;25.02;98993.19;6272418;27;96690;-60
2022/08/04 11:40:37;;;;;;;;;11.00;11.00;;;;;35.68;24.90;98983.56;6262497;27;97522;-60
2022/08/04 11:43:45;;;;;;;;;11.00;10.60;;;;;35.71;24.69;98986.38;6264476;27;97907;-60
2022/08/04 11:47:16;;;;;;;;;11.40;10.40;;;;;35.77;25.06;98986.84;6271343;27;97084;-60
2022/08/04 11:50:24;;;;;;;;;17.40;17.40;;;;;35.51;24.66;98959.72;6263711;27;97437;-58
2022/08/04 11:53:30;;;;;;;;;12.00;11.33;;;;;35.81;24.96;98990.47;6262243;27;97444;-59
2022/08/04 11:56:40;;;;;;;;;11.20;10.60;;;;;35.79;24.43;98979.63;6262059;27;97509;-61
2022/08/04 11:59:47;;;;;;;;;12.00;12.00;;;;;35.84;24.92;98981.28;6286280;27;97148;-60
2022/08/04 12:03:19;;;;;;;;;14.00;14.00;;;;;35.96;25.22;98978.19;6286816;27;96899;-60
2022/08/04 12:06:28;;;;;;;;;12.00;11.00;;;;;36.08;25.34;98975.06;6287113;27;96797;-59
2022/08/04 12:09:44;;;;;;;;;13.00;12.50;;;;;36.14;24.59;98969.94;6264783;27;97257;-62
2022/08/04 12:13:00;;;;;;;;;11.80;11.80;;;;;36.15;24.28;98963.13;6261792;27;96824;-61
2022/08/04 12:16:17;;;;;;;;;11.00;10.60;;;;;36.16;23.84;98959.13;6261685;27;97196;-60
2022/08/04 12:19:26;;;;;;;;;11.00;11.00;;;;;36.11;24.84;98954.66;6282225;27;97427;-65
2022/08/04 12:22:54;;;;;;;;;11.80;11.80;;;;;36.03;24.45;98945.34;6268620;27;97456;-65
2022/08/04 12:26:05;;;;;;;;;10.20;10.00;;;;;36.26;25.18;98955.59;6281403;27;97411;-60
2022/08/04 12:29:13;;;;;;;;;13.00;12.00;;;;;36.32;24.04;98951.19;6291202;27;97511;-59
2022/08/04 12:32:22;;;;;;;;;9.50;8.50;;;;;36.46;25.05;98940.84;6288535;27;96615;-57
2022/08/04 12:35:33;;;;;;;;;11.00;10.60;;;;;36.52;23.72;98952.50;6291145;27;96496;-65
2022/08/04 12:38:47;;;;;;;;;12.00;12.00;;;;;36.65;23.33;98953.84;6291239;27;96909;-61
2022/08/04 12:42:01;;;;;;;;;10.00;10.00;;;;;36.65;23.80;98948.22;6275665;27;96941;-60
2022/08/04 12:45:08;;;;;;;;;9.60;9.00;;;;;36.62;24.05;98942.56;6247224;27;97621;-60
2022/08/04 12:48:13;;;;;;;;;10.00;10.00;;;;;36.56;23.43;98949.72;6264054;27;96743;-61
2022/08/04 12:51:27;;;;;;;;;11.00;10.00;;;;;36.56;24.13;98944.91;6265913;27;97025;-62
2022/08/04 12:54:55;;;;;;;;;11.40;11.00;;;;;36.62;24.36;98942.56;6263250;27;97078;-62
2022/08/04 12:58:02;;;;;;;;;11.50;11.50;;;;;36.76;24.36;98937.00;6264602;27;97031;-63
2022/08/04 13:01:10;;;;;;;;;11.00;11.00;;;;;36.93;24.12;98925.03;6272119;27;96591;-58
2022/08/04 13:04:37;;;;;;;;;10.50;10.50;;;;;36.82;23.29;98929.81;6290413;27;97473;-55
2022/08/04 13:07:49;;;;;;;;;11.80;11.00;;;;;36.71;23.20;98931.75;6287198;27;97997;-63
2022/08/04 13:10:58;;;;;;;;;12.80;12.20;;;;;36.66;23.55;98932.16;6282371;27;97386;-63
2022/08/04 13:14:03;;;;;;;;;12.00;11.60;;;;;36.65;23.97;98922.94;6290486;27;97496;-63
2022/08/04 13:17:45;;;;;;;;;8.20;8.20;;;;;36.71;24.54;98915.72;6274478;27;97043;-64
2022/08/04 13:20:51;;;;;;;;;10.00;10.00;;;;;36.71;23.33;98917.72;6280599;27;97619;-60
2022/08/04 13:23:57;;;;;;;;;9.00;9.00;;;;;36.69;23.29;98917.31;6264577;27;97424;-59
2022/08/04 13:27:23;;;;;;;;;10.25;10.00;;;;;36.79;24.57;98913.75;6264545;27;96844;-60
2022/08/04 13:30:28;;;;;;;;;12.00;10.00;;;;;36.78;23.26;98917.75;6269600;27;97406;-55
2022/08/04 13:33:35;;;;;;;;;9.00;9.00;;;;;36.71;23.50;98918.53;6284483;27;97486;-63
2022/08/04 13:36:39;;;;;;;;;9.00;9.00;;;;;36.61;23.67;98916.47;6279071;27;96912;-59
2022/08/04 13:39:46;;;;;;;;;10.00;10.00;;;;;36.66;23.59;98904.06;6268923;27;97419;-58
2022/08/04 13:42:58;;;;;;;;;9.60;9.60;;;;;36.75;24.02;98904.50;6289034;27;97309;-57
2022/08/04 13:46:06;;;;;;;;;10.00;10.00;;;;;36.76;23.60;98912.53;6289152;27;97414;-60
2022/08/04 13:49:16;;;;;;;;;11.60;10.80;;;;;36.86;23.92;98908.16;6287577;27;96844;-60
2022/08/04 13:52:41;;;;;;;;;9.00;9.00;;;;;36.90;23.08;98904.16;6270579;27;96833;-64
2022/08/04 13:55:47;;;;;;;;;10.60;10.60;;;;;36.97;23.16;98905.38;6289567;27;96635;-60
2022/08/04 13:59:10;;;;;;;;;14.60;13.60;;;;;37.00;23.03;98902.56;6271884;27;97408;-61
2022/08/04 14:02:33;;;;;;;;;12.00;11.00;;;;;36.92;23.01;98897.31;6278947;27;97184;-62
2022/08/04 14:05:38;;;;;;;;;10.00;10.00;;;;;36.99;23.53;98895.34;6264049;27;97055;-61
2022/08/04 14:09:11;;;;;;;;;12.00;12.00;;;;;37.01;23.60;98900.56;6265624;27;96410;-64
2022/08/04 14:12:15;;;;;;;;;12.60;12.60;;;;;37.07;23.90;98901.78;6264130;27;96885;-62
2022/08/04 14:15:42;;;;;;;;;11.67;10.67;;;;;37.08;22.74;98895.81;6270555;27;97644;-62
2022/08/04 14:19:06;;;;;;;;;9.00;8.20;;;;;37.06;22.74;98883.31;6276642;27;97372;-60
2022/08/04 14:22:28;;;;;;;;;10.50;10.00;;;;;36.97;22.91;98885.69;6269376;27;98005;-61
2022/08/04 14:25:32;;;;;;;;;11.00;11.00;;;;;36.93;23.49;98888.50;6266188;27;96804;-62
2022/08/04 14:28:38;;;;;;;;;11.50;11.50;;;;;36.83;22.91;98884.47;6260916;27;97429;-60
2022/08/04 14:32:02;;;;;;;;;8.00;7.00;;;;;36.83;23.00;98876.03;6271173;27;99025;-57
2022/08/04 14:35:16;;;;;;;;;9.25;9.00;;;;;36.84;23.56;98880.47;6277392;27;97219;-58
2022/08/04 14:38:21;;;;;;;;;8.00;8.00;;;;;36.82;22.62;98879.25;6276170;27;97267;-60
2022/08/04 14:41:27;;;;;;;;;10.20;10.20;;;;;36.75;23.18;98877.19;6282120;27;97656;-60
2022/08/04 14:44:30;;;;;;;;;10.50;10.00;;;;;36.69;22.75;98861.94;6287278;27;96341;-61
2022/08/04 14:47:41;;;;;;;;;10.00;10.00;;;;;36.62;23.07;98861.91;6287718;27;97528;-63
2022/08/04 14:50:55;;;;;;;;;9.00;9.00;;;;;36.53;23.00;98852.22;6273193;27;97440;-61
2022/08/04 14:54:00;;;;;;;;;10.75;10.00;;;;;36.55;23.16;98864.69;6271375;27;97428;-61
2022/08/04 14:57:10;;;;;;;;;11.00;10.80;;;;;36.52;23.72;98857.03;6283486;27;96668;-62
2022/08/04 15:00:25;;;;;;;;;10.40;10.40;;;;;36.47;22.41;98863.03;6269506;27;97454;-62
2022/08/04 15:03:30;;;;;;;;;11.00;11.00;;;;;36.34;22.52;98861.78;6265121;27;96959;-59
2022/08/04 15:06:35;;;;;;;;;11.60;10.60;;;;;36.24;23.55;98860.53;6273606;27;96796;-59
2022/08/04 15:09:41;;;;;;;;;9.00;9.00;;;;;36.15;23.86;98862.06;6274136;27;96713;-57